Time;durP1;ratioP1;P1;durP2;ratioP2;P2;SDS_P1;SDS_P2;PMS_P1;PMS_P2;Temp;Humidity;BMP_temperature;BMP_pressure;BME280_temperature;BME280_humidity;BME280_pressure;Samples;Min_cycle;Max_cycle;Signal;HPM_P1;HPM_P2
2023/08/15 00:01:09;;;;;;;;;;;21.80;70.50;;;;;;5056322;28;1965;-67
2023/08/15 00:03:34;;;;;;;;;;;21.90;70.60;;;;;;5058307;28;838;-67
2023/08/15 00:06:00;;;;;;;;;;;21.90;70.50;;;;;;5075963;28;1338;-67
2023/08/15 00:08:25;;;;;;;;;;;21.90;71.30;;;;;;5058590;28;846;-68
2023/08/15 00:10:50;;;;;;;;;;;21.90;70.60;;;;;;5060606;28;913;-65
2023/08/15 00:13:16;;;;;;;;;;;21.90;70.60;;;;;;5058542;28;879;-66
2023/08/15 00:15:41;;;;;;;;;;;21.90;70.60;;;;;;5054622;28;833;-68
2023/08/15 00:18:07;;;;;;;;;;;21.90;70.60;;;;;;5056422;28;1271;-68
2023/08/15 00:20:32;;;;;;;;;;;21.90;70.60;;;;;;5059890;28;1898;-68
2023/08/15 00:22:58;;;;;;;;;;;21.90;70.60;;;;;;5043700;28;1385;-68
2023/08/15 00:25:23;;;;;;;;;;;21.90;70.60;;;;;;5062661;28;1062;-67
2023/08/15 00:27:49;;;;;;;;;;;21.90;70.60;;;;;;5057559;28;1351;-68
2023/08/15 00:30:14;;;;;;;;;;;21.80;70.60;;;;;;5054780;28;840;-68
2023/08/15 00:32:40;;;;;;;;;;;21.90;70.70;;;;;;5059053;28;833;-67
2023/08/15 00:35:05;;;;;;;;;;;21.90;70.70;;;;;;5055473;28;1012;-67
2023/08/15 00:37:31;;;;;;;;;;;21.90;70.70;;;;;;5058062;28;1304;-67
2023/08/15 00:39:57;;;;;;;;;;;21.90;70.70;;;;;;5055875;28;946;-67
2023/08/15 00:42:22;;;;;;;;;;;21.90;70.70;;;;;;5056804;28;1910;-68
2023/08/15 00:44:47;;;;;;;;;;;21.90;70.60;;;;;;5060598;28;1408;-68
2023/08/15 00:47:13;;;;;;;;;;;21.90;70.50;;;;;;5059418;28;1380;-69
2023/08/15 00:49:39;;;;;;;;;;;21.90;70.60;;;;;;5058945;28;1427;-66
2023/08/15 00:52:06;;;;;;;;;;;21.80;70.50;;;;;;5056879;28;1247;-69
2023/08/15 00:54:31;;;;;;;;;;;21.80;70.60;;;;;;5061156;28;1495;-68
2023/08/15 00:56:56;;;;;;;;;;;21.90;70.60;;;;;;5045143;28;1461;-68
2023/08/15 00:59:22;;;;;;;;;;;21.90;70.70;;;;;;5065874;28;1371;-66
2023/08/15 01:01:47;;;;;;;;;;;21.90;70.70;;;;;;5063811;28;1976;-67
2023/08/15 01:04:13;;;;;;;;;;;21.90;70.60;;;;;;5069752;28;848;-67
2023/08/15 01:06:39;;;;;;;;;;;21.90;71.40;;;;;;5065403;28;1296;-67
2023/08/15 01:09:05;;;;;;;;;;;21.80;70.60;;;;;;5064946;28;832;-66
2023/08/15 01:11:32;;;;;;;;;;;21.90;70.70;;;;;;5062620;28;799;-67
2023/08/15 01:14:01;;;;;;;;;;;21.90;70.70;;;;;;5044999;28;842;-69
2023/08/15 01:16:28;;;;;;;;;;;21.90;70.70;;;;;;5060166;28;1295;-69
2023/08/15 01:19:01;;;;;;;;;;;21.90;70.60;;;;;;5063629;28;1321;-69
2023/08/15 01:21:29;;;;;;;;;;;21.80;70.60;;;;;;5060858;28;1906;-69
2023/08/15 01:23:54;;;;;;;;;;;21.90;70.70;;;;;;5060223;28;971;-68
2023/08/15 01:26:20;;;;;;;;;;;21.80;70.60;;;;;;5057318;28;4212;-68
2023/08/15 01:28:45;;;;;;;;;;;21.90;70.70;;;;;;5062937;28;1397;-68
2023/08/15 01:31:22;;;;;;;;;;;21.90;70.70;;;;;;5061969;28;893;-67
2023/08/15 01:33:48;;;;;;;;;;;21.90;70.80;;;;;;5059804;28;863;-68
2023/08/15 01:36:14;;;;;;;;;;;21.90;70.70;;;;;;5061111;28;1271;-67
2023/08/15 01:38:44;;;;;;;;;;;21.90;70.70;;;;;;5061060;28;951;-67
2023/08/15 01:41:11;;;;;;;;;;;21.90;70.70;;;;;;5061893;28;1977;-67
2023/08/15 01:43:37;;;;;;;;;;;21.90;70.80;;;;;;5061778;28;911;-67
2023/08/15 01:46:03;;;;;;;;;;;21.90;70.70;;;;;;5061348;28;1334;-66
2023/08/15 01:48:29;;;;;;;;;;;21.80;70.60;;;;;;5057236;28;895;-67
2023/08/15 01:50:54;;;;;;;;;;;21.90;70.70;;;;;;5058536;28;1520;-67
2023/08/15 01:53:20;;;;;;;;;;;21.90;70.70;;;;;;5060815;28;824;-66
2023/08/15 01:55:45;;;;;;;;;;;21.80;70.60;;;;;;5063670;28;1463;-66
2023/08/15 01:58:11;;;;;;;;;;;21.90;70.70;;;;;;5059327;28;1258;-68
2023/08/15 02:00:36;;;;;;;;;;;21.90;70.70;;;;;;5059670;28;1965;-67
2023/08/15 02:03:02;;;;;;;;;;;21.90;70.70;;;;;;5061003;28;1685;-67
2023/08/15 02:05:27;;;;;;;;;;;21.80;70.60;;;;;;5063251;28;899;-67
2023/08/15 02:07:52;;;;;;;;;;;21.80;70.60;;;;;;5062667;28;1239;-67
2023/08/15 02:10:18;;;;;;;;;;;21.90;70.80;;;;;;5057620;28;990;-67
2023/08/15 02:12:43;;;;;;;;;;;21.80;70.60;;;;;;5062532;28;857;-68
2023/08/15 02:15:09;;;;;;;;;;;21.90;70.70;;;;;;5060145;28;879;-66
2023/08/15 02:17:34;;;;;;;;;;;21.80;70.70;;;;;;5061250;28;1269;-67
2023/08/15 02:20:00;;;;;;;;;;;21.90;70.80;;;;;;5057609;28;1311;-68
2023/08/15 02:22:25;;;;;;;;;;;21.80;70.70;;;;;;5062189;28;1942;-68
2023/08/15 02:24:51;;;;;;;;;;;21.80;70.70;;;;;;5061427;28;1262;-68
2023/08/15 02:27:16;;;;;;;;;;;21.90;70.70;;;;;;5056684;28;1351;-67
2023/08/15 02:29:42;;;;;;;;;;;21.80;70.70;;;;;;5059616;28;1049;-67
2023/08/15 02:32:07;;;;;;;;;;;21.80;70.70;;;;;;5061912;28;886;-67
2023/08/15 02:34:33;;;;;;;;;;;21.80;70.70;;;;;;5066495;28;1022;-66
2023/08/15 02:36:58;;;;;;;;;;;21.80;70.70;;;;;;5052579;28;1355;-68
2023/08/15 02:39:23;;;;;;;;;;;21.80;70.70;;;;;;5060432;28;1325;-68
2023/08/15 02:41:49;;;;;;;;;;;21.80;70.70;;;;;;5061306;28;1894;-68
2023/08/15 02:44:14;;;;;;;;;;;21.80;70.70;;;;;;5060950;28;1288;-68
2023/08/15 02:46:40;;;;;;;;;;;21.80;70.70;;;;;;5060234;28;1287;-67
2023/08/15 02:49:05;;;;;;;;;;;21.80;70.70;;;;;;5077063;28;1429;-66
2023/08/15 02:51:31;;;;;;;;;;;21.80;70.70;;;;;;5061675;28;997;-68
2023/08/15 02:53:56;;;;;;;;;;;21.80;70.70;;;;;;5059730;28;858;-66
2023/08/15 02:56:22;;;;;;;;;;;21.80;70.70;;;;;;5068691;28;1353;-67
2023/08/15 02:58:47;;;;;;;;;;;21.80;70.70;;;;;;5061964;28;1298;-67
2023/08/15 03:01:12;;;;;;;;;;;21.80;70.70;;;;;;5056803;28;1984;-66
2023/08/15 03:03:39;;;;;;;;;;;21.80;70.70;;;;;;5059794;28;867;-67
2023/08/15 03:06:04;;;;;;;;;;;21.80;70.70;;;;;;5059345;28;1252;-67
2023/08/15 03:08:30;;;;;;;;;;;21.80;70.70;;;;;;5055704;28;855;-67
2023/08/15 03:10:55;;;;;;;;;;;21.80;70.80;;;;;;5057784;28;1492;-68
2023/08/15 03:13:21;;;;;;;;;;;21.80;70.70;;;;;;5043193;28;1329;-67
2023/08/15 03:15:53;;;;;;;;;;;21.80;70.70;;;;;;5061499;28;828;-67
2023/08/15 03:18:18;;;;;;;;;;;21.80;70.70;;;;;;5057825;28;1361;-67
2023/08/15 03:20:44;;;;;;;;;;;21.80;71.50;;;;;;5056475;28;1910;-68
2023/08/15 03:23:11;;;;;;;;;;;21.80;70.70;;;;;;5059505;28;1269;-66
2023/08/15 03:25:36;;;;;;;;;;;21.80;70.80;;;;;;5056303;28;848;-66
2023/08/15 03:28:01;;;;;;;;;;;21.80;70.80;;;;;;5057687;28;1469;-66
2023/08/15 03:30:27;;;;;;;;;;;21.80;70.80;;;;;;5060017;28;931;-69
2023/08/15 03:32:53;;;;;;;;;;;21.80;70.80;;;;;;5059654;28;822;-67
2023/08/15 03:35:18;;;;;;;;;;;21.80;70.80;;;;;;5059328;28;769;-67
2023/08/15 03:37:43;;;;;;;;;;;21.80;70.80;;;;;;5055886;28;1269;-68
2023/08/15 03:40:09;;;;;;;;;;;21.80;70.80;;;;;;5057443;28;1110;-67
2023/08/15 03:42:35;;;;;;;;;;;21.80;70.80;;;;;;5056753;28;1898;-67
2023/08/15 03:45:00;;;;;;;;;;;21.80;70.80;;;;;;5058642;28;871;-68
2023/08/15 03:47:26;;;;;;;;;;;21.90;70.80;;;;;;5059923;28;1259;-66
2023/08/15 03:49:51;;;;;;;;;;;21.80;70.80;;;;;;5062142;28;918;-66
2023/08/15 03:52:17;;;;;;;;;;;21.80;71.50;;;;;;5058640;28;832;-70
2023/08/15 03:54:42;;;;;;;;;;;21.80;70.80;;;;;;5067448;28;910;-68
2023/08/15 03:57:08;;;;;;;;;;;21.80;70.80;;;;;;5057679;28;1208;-68
2023/08/15 03:59:33;;;;;;;;;;;21.80;70.80;;;;;;5056202;28;926;-69
2023/08/15 04:01:59;;;;;;;;;;;21.80;70.80;;;;;;5059046;28;1977;-68
2023/08/15 04:04:24;;;;;;;;;;;21.80;70.80;;;;;;5056035;28;806;-69
2023/08/15 04:06:49;;;;;;;;;;;21.80;70.80;;;;;;5057594;28;1303;-69
2023/08/15 04:09:15;;;;;;;;;;;21.80;70.80;;;;;;5058700;28;895;-68
2023/08/15 04:11:40;;;;;;;;;;;21.80;70.80;;;;;;5054554;28;899;-69
2023/08/15 04:14:06;;;;;;;;;;;21.80;70.80;;;;;;5060300;28;1014;-70
2023/08/15 04:16:31;;;;;;;;;;;21.80;70.80;;;;;;5057271;28;1606;-70
2023/08/15 04:18:57;;;;;;;;;;;21.80;70.80;;;;;;5053458;28;1315;-68
2023/08/15 04:21:22;;;;;;;;;;;21.80;70.80;;;;;;5056253;28;1914;-68
2023/08/15 04:23:48;;;;;;;;;;;21.80;70.80;;;;;;5057450;28;947;-69
2023/08/15 04:26:13;;;;;;;;;;;21.80;70.90;;;;;;5058643;28;1353;-69
2023/08/15 04:28:39;;;;;;;;;;;21.80;70.80;;;;;;5054928;28;1336;-67
2023/08/15 04:31:04;;;;;;;;;;;21.80;70.80;;;;;;5055230;28;955;-69
2023/08/15 04:33:30;;;;;;;;;;;21.80;70.80;;;;;;5059370;28;1297;-70
2023/08/15 04:35:55;;;;;;;;;;;21.80;70.80;;;;;;5061985;28;2103;-69
2023/08/15 04:38:20;;;;;;;;;;;21.80;70.90;;;;;;5058122;28;855;-67
2023/08/15 04:40:46;;;;;;;;;;;21.80;70.90;;;;;;5058429;28;1957;-66
2023/08/15 04:43:11;;;;;;;;;;;21.80;70.90;;;;;;5059688;28;1432;-66
2023/08/15 04:45:40;;;;;;;;;;;21.80;70.80;;;;;;5057967;28;800;-66
2023/08/15 04:48:09;;;;;;;;;;;21.80;70.80;;;;;;5058316;28;1264;-68
2023/08/15 04:50:34;;;;;;;;;;;21.80;70.80;;;;;;5058835;28;956;-68
2023/08/15 04:53:00;;;;;;;;;;;21.80;70.80;;;;;;5060460;28;982;-68
2023/08/15 04:55:25;;;;;;;;;;;21.80;70.90;;;;;;5056385;28;1042;-69
2023/08/15 04:57:50;;;;;;;;;;;21.80;70.80;;;;;;5052477;28;1254;-69
2023/08/15 05:00:19;;;;;;;;;;;21.80;70.90;;;;;;5060175;28;848;-69
2023/08/15 05:02:45;;;;;;;;;;;21.80;70.90;;;;;;5059289;28;1906;-66
2023/08/15 05:05:10;;;;;;;;;;;21.80;70.80;;;;;;5058581;28;1014;-66
2023/08/15 05:07:36;;;;;;;;;;;21.80;70.90;;;;;;5056835;28;1282;-69
2023/08/15 05:10:01;;;;;;;;;;;21.80;70.90;;;;;;5053400;28;895;-66
2023/08/15 05:12:27;;;;;;;;;;;21.80;70.90;;;;;;5053734;28;800;-66
2023/08/15 05:14:52;;;;;;;;;;;21.80;70.90;;;;;;5056829;28;883;-66
2023/08/15 05:17:18;;;;;;;;;;;21.80;70.90;;;;;;5060119;28;1248;-65
2023/08/15 05:19:44;;;;;;;;;;;21.80;71.50;;;;;;5058803;28;1386;-66
2023/08/15 05:22:09;;;;;;;;;;;21.80;72.10;;;;;;5059641;28;1957;-68
2023/08/15 05:24:34;;;;;;;;;;;21.80;73.10;;;;;;5058209;28;859;-68
2023/08/15 05:27:00;;;;;;;;;;;21.80;73.60;;;;;;5056543;28;1336;-68
2023/08/15 05:29:25;;;;;;;;;;;21.80;74.20;;;;;;5054874;28;964;-68
2023/08/15 05:31:51;;;;;;;;;;;21.80;75.00;;;;;;5060384;28;804;-69
2023/08/15 05:34:17;;;;;;;;;;;21.80;75.10;;;;;;5055515;28;858;-70
2023/08/15 05:36:42;;;;;;;;;;;21.80;74.30;;;;;;5056536;28;1351;-69
2023/08/15 05:39:08;;;;;;;;;;;21.80;74.20;;;;;;5058337;28;806;-69
2023/08/15 05:41:33;;;;;;;;;;;21.80;74.20;;;;;;5057627;28;1973;-67
2023/08/15 05:43:58;;;;;;;;;;;21.80;74.10;;;;;;5058869;28;932;-67
2023/08/15 05:46:24;;;;;;;;;;;21.80;74.00;;;;;;5066477;28;1258;-67
2023/08/15 05:48:49;;;;;;;;;;;21.80;73.90;;;;;;5062234;28;879;-68
2023/08/15 05:51:15;;;;;;;;;;;21.80;73.70;;;;;;5062223;28;899;-67
2023/08/15 05:53:40;;;;;;;;;;;21.80;73.70;;;;;;5060693;28;1054;-66
2023/08/15 05:56:06;;;;;;;;;;;21.80;73.60;;;;;;5061157;28;1333;-67
2023/08/15 05:58:31;;;;;;;;;;;21.80;73.50;;;;;;5061520;28;895;-67
2023/08/15 06:00:57;;;;;;;;;;;21.80;73.40;;;;;;5062143;28;1901;-69
2023/08/15 06:03:22;;;;;;;;;;;21.80;73.40;;;;;;5052980;28;1710;-68
2023/08/15 06:05:48;;;;;;;;;;;21.80;73.20;;;;;;5059422;28;1803;-67
2023/08/15 06:08:16;;;;;;;;;;;21.80;73.10;;;;;;5058280;28;1454;-67
2023/08/15 06:10:42;;;;;;;;;;;21.80;73.00;;;;;;5059145;28;1053;-64
2023/08/15 06:13:07;;;;;;;;;;;21.80;72.90;;;;;;5066439;28;807;-68
2023/08/15 06:15:32;;;;;;;;;;;21.80;72.90;;;;;;5063560;28;887;-69
2023/08/15 06:17:58;;;;;;;;;;;21.80;72.80;;;;;;5061182;28;1321;-66
2023/08/15 06:20:23;;;;;;;;;;;21.80;72.80;;;;;;5060079;28;1293;-66
2023/08/15 06:22:49;;;;;;;;;;;21.80;72.80;;;;;;5060920;28;1901;-66
2023/08/15 06:25:14;;;;;;;;;;;21.80;72.70;;;;;;5059435;28;859;-66
2023/08/15 06:27:40;;;;;;;;;;;21.80;72.60;;;;;;5059767;28;1342;-66
2023/08/15 06:30:05;;;;;;;;;;;21.80;72.60;;;;;;5060281;28;1076;-67
2023/08/15 06:32:31;;;;;;;;;;;21.80;72.50;;;;;;5061556;28;881;-68
2023/08/15 06:34:57;;;;;;;;;;;21.80;72.50;;;;;;5060414;28;866;-67
2023/08/15 06:37:22;;;;;;;;;;;21.80;72.50;;;;;;5058421;28;1311;-67
2023/08/15 06:39:48;;;;;;;;;;;21.80;72.40;;;;;;5046344;28;1226;-66
2023/08/15 06:42:14;;;;;;;;;;;21.80;72.40;;;;;;5059289;28;1878;-67
2023/08/15 06:44:41;;;;;;;;;;;21.80;72.40;;;;;;5059760;28;1614;-65
2023/08/15 06:47:06;;;;;;;;;;;21.80;72.40;;;;;;5056444;28;1316;-66
2023/08/15 06:49:32;;;;;;;;;;;21.80;72.30;;;;;;5058388;28;877;-66
2023/08/15 06:51:57;;;;;;;;;;;21.80;72.30;;;;;;5060076;28;899;-66
2023/08/15 06:54:23;;;;;;;;;;;21.80;72.20;;;;;;5060688;28;883;-67
2023/08/15 06:56:48;;;;;;;;;;;21.80;72.20;;;;;;5060602;28;1339;-68
2023/08/15 06:59:14;;;;;;;;;;;21.80;72.20;;;;;;5060317;28;892;-67
2023/08/15 07:01:39;;;;;;;;;;;21.80;72.20;;;;;;5062626;28;1898;-66
2023/08/15 07:04:06;;;;;;;;;;;21.80;72.20;;;;;;5059886;28;875;-66
2023/08/15 07:06:32;;;;;;;;;;;21.80;72.10;;;;;;5056847;28;1294;-66
2023/08/15 07:08:57;;;;;;;;;;;21.80;72.10;;;;;;5058513;28;850;-66
2023/08/15 07:11:24;;;;;;;;;;;21.80;72.10;;;;;;5058925;28;2116;-66
2023/08/15 07:13:50;;;;;;;;;;;21.80;72.10;;;;;;5058297;28;1403;-66
2023/08/15 07:16:16;;;;;;;;;;;21.80;72.00;;;;;;5060180;28;1339;-66
2023/08/15 07:18:41;;;;;;;;;;;21.80;72.10;;;;;;5058815;28;938;-66
2023/08/15 07:21:07;;;;;;;;;;;21.80;72.00;;;;;;5059395;28;1906;-67
2023/08/15 07:23:32;;;;;;;;;;;21.80;72.00;;;;;;5062019;28;913;-67
2023/08/15 07:25:57;;;;;;;;;;;21.80;72.00;;;;;;5057695;28;1354;-66
2023/08/15 07:28:23;;;;;;;;;;;21.80;72.00;;;;;;5059654;28;1343;-69
2023/08/15 07:30:49;;;;;;;;;;;21.80;72.00;;;;;;5058111;28;903;-68
2023/08/15 07:33:15;;;;;;;;;;;21.80;72.00;;;;;;5057306;28;1006;-68
2023/08/15 07:35:41;;;;;;;;;;;21.80;72.00;;;;;;5059628;28;1059;-68
2023/08/15 07:38:06;;;;;;;;;;;21.80;71.90;;;;;;5060409;28;1241;-68
2023/08/15 07:40:32;;;;;;;;;;;21.80;71.90;;;;;;5060162;28;925;-68
2023/08/15 07:42:57;;;;;;;;;;;21.80;71.90;;;;;;5062474;28;1901;-68
2023/08/15 07:45:23;;;;;;;;;;;21.80;71.90;;;;;;5056735;28;885;-68
2023/08/15 07:47:51;;;;;;;;;;;21.80;71.80;;;;;;5061134;28;1257;-68
2023/08/15 07:50:17;;;;;;;;;;;21.80;71.80;;;;;;5060172;28;860;-70
2023/08/15 07:52:43;;;;;;;;;;;21.80;71.90;;;;;;5054302;28;870;-70
2023/08/15 07:55:08;;;;;;;;;;;21.80;71.90;;;;;;5056886;28;896;-69
2023/08/15 07:57:34;;;;;;;;;;;21.80;71.80;;;;;;5053651;28;2095;-70
2023/08/15 08:00:00;;;;;;;;;;;21.80;71.80;;;;;;5060311;28;1517;-70
2023/08/15 08:02:25;;;;;;;;;;;21.80;71.80;;;;;;5061102;28;1914;-70
2023/08/15 08:04:51;;;;;;;;;;;21.80;71.80;;;;;;5060352;28;2125;-70
2023/08/15 08:07:16;;;;;;;;;;;21.80;71.80;;;;;;5056534;28;1946;-70
2023/08/15 08:09:41;;;;;;;;;;;21.80;71.80;;;;;;5042526;28;1414;-70
2023/08/15 08:12:08;;;;;;;;;;;21.80;71.70;;;;;;5064847;28;1440;-69
2023/08/15 08:14:33;;;;;;;;;;;21.80;71.70;;;;;;5056004;28;1150;-69
2023/08/15 08:16:58;;;;;;;;;;;21.80;71.70;;;;;;5058527;28;1274;-69
2023/08/15 08:19:24;;;;;;;;;;;21.80;71.70;;;;;;5059829;28;1273;-69
2023/08/15 08:21:49;;;;;;;;;;;21.80;71.70;;;;;;5060851;28;1967;-70
2023/08/15 08:24:15;;;;;;;;;;;21.80;71.70;;;;;;5059941;28;1069;-68
2023/08/15 08:26:40;;;;;;;;;;;21.80;71.70;;;;;;5056904;28;1256;-67
2023/08/15 08:29:06;;;;;;;;;;;21.80;71.70;;;;;;5053853;28;1235;-68
2023/08/15 08:31:31;;;;;;;;;;;21.80;71.70;;;;;;5054478;28;834;-67
2023/08/15 08:33:57;;;;;;;;;;;21.80;71.70;;;;;;5053612;28;917;-68
2023/08/15 08:36:22;;;;;;;;;;;21.80;71.60;;;;;;5054992;28;1307;-67
2023/08/15 08:38:48;;;;;;;;;;;21.80;71.70;;;;;;5053710;28;1078;-68
2023/08/15 08:41:13;;;;;;;;;;;21.80;71.60;;;;;;5058309;28;2022;-66
2023/08/15 08:43:39;;;;;;;;;;;21.80;71.60;;;;;;5055121;28;847;-67
2023/08/15 08:46:05;;;;;;;;;;;21.80;71.60;;;;;;5059052;28;1238;-67
2023/08/15 08:48:31;;;;;;;;;;;21.80;71.60;;;;;;5058057;28;2104;-66
2023/08/15 08:50:56;;;;;;;;;;;21.80;71.60;;;;;;5058602;28;1939;-67
2023/08/15 08:53:22;;;;;;;;;;;21.80;71.60;;;;;;5059011;28;1256;-68
2023/08/15 08:55:48;;;;;;;;;;;21.80;71.60;;;;;;5057662;28;1358;-67
2023/08/15 08:58:13;;;;;;;;;;;21.80;71.60;;;;;;5058174;28;1349;-67
2023/08/15 09:00:39;;;;;;;;;;;21.80;71.60;;;;;;5055074;28;1957;-66
2023/08/15 09:03:05;;;;;;;;;;;21.80;71.60;;;;;;5058674;28;871;-67
2023/08/15 09:05:30;;;;;;;;;;;21.80;71.60;;;;;;5060948;28;844;-67
2023/08/15 09:07:56;;;;;;;;;;;21.80;71.60;;;;;;5061113;28;1285;-66
2023/08/15 09:10:21;;;;;;;;;;;21.80;71.60;;;;;;5054596;28;826;-67
2023/08/15 09:12:47;;;;;;;;;;;21.80;71.60;;;;;;5058686;28;1042;-67
2023/08/15 09:15:13;;;;;;;;;;;21.80;71.50;;;;;;5060275;28;986;-67
2023/08/15 09:17:38;;;;;;;;;;;21.80;71.60;;;;;;5058118;28;1418;-66
2023/08/15 09:20:08;;;;;;;;;;;21.80;71.50;;;;;;5059151;28;1438;-67
2023/08/15 09:22:33;;;;;;;;;;;21.80;71.60;;;;;;5065257;28;1930;-67
2023/08/15 09:24:59;;;;;;;;;;;21.80;71.50;;;;;;5063898;28;1513;-66
2023/08/15 09:27:24;;;;;;;;;;;21.80;71.50;;;;;;5065406;28;1346;-66
2023/08/15 09:29:50;;;;;;;;;;;21.80;71.50;;;;;;5062448;28;1378;-67
2023/08/15 09:32:15;;;;;;;;;;;21.80;71.50;;;;;;5067074;28;1326;-67
2023/08/15 09:34:41;;;;;;;;;;;21.80;71.50;;;;;;5064649;28;1323;-67
2023/08/15 09:37:07;;;;;;;;;;;21.80;71.50;;;;;;5062495;28;1261;-67
2023/08/15 09:39:32;;;;;;;;;;;21.80;71.50;;;;;;5054973;28;970;-67
2023/08/15 09:41:58;;;;;;;;;;;21.80;71.50;;;;;;5061305;28;1878;-67
2023/08/15 09:44:28;;;;;;;;;;;21.80;71.50;;;;;;5063035;28;908;-67
2023/08/15 09:46:54;;;;;;;;;;;21.80;71.50;;;;;;5057794;28;1382;-67
2023/08/15 09:49:20;;;;;;;;;;;21.80;71.50;;;;;;5059204;28;1212;-67
2023/08/15 09:51:45;;;;;;;;;;;21.80;71.50;;;;;;5059896;28;846;-67
2023/08/15 09:54:11;;;;;;;;;;;21.80;71.50;;;;;;5057396;28;895;-66
2023/08/15 09:56:37;;;;;;;;;;;21.80;71.50;;;;;;5069320;28;1267;-67
2023/08/15 09:59:03;;;;;;;;;;;21.80;71.50;;;;;;5061301;28;961;-69
2023/08/15 10:01:29;;;;;;;;;;;21.80;71.50;;;;;;5062492;28;1957;-67
2023/08/15 10:03:54;;;;;;;;;;;21.80;71.50;;;;;;5060868;28;911;-67
2023/08/15 10:06:19;;;;;;;;;;;21.80;71.50;;;;;;5060216;28;1259;-69
2023/08/15 10:08:45;;;;;;;;;;;21.80;71.50;;;;;;5062212;28;824;-70
2023/08/15 10:11:10;;;;;;;;;;;21.80;71.50;;;;;;5058029;28;918;-70
2023/08/15 10:13:37;;;;;;;;;;;21.80;71.50;;;;;;5061695;28;1455;-70
2023/08/15 10:16:04;;;;;;;;;;;21.80;71.50;;;;;;5056781;28;1259;-69
2023/08/15 10:18:29;;;;;;;;;;;21.80;71.50;;;;;;5058126;28;1240;-70
2023/08/15 10:20:56;;;;;;;;;;;21.80;71.50;;;;;;5058060;28;1902;-69
2023/08/15 10:23:28;;;;;;;;;;;21.80;71.50;;;;;;5062004;28;917;-69
2023/08/15 10:25:53;;;;;;;;;;;21.80;71.50;;;;;;5060829;28;874;-69
2023/08/15 10:28:19;;;;;;;;;;;21.80;71.50;;;;;;5069274;28;1483;-71
2023/08/15 10:30:50;;;;;;;;;;;21.80;71.50;;;;;;5067160;28;1162;-69
2023/08/15 10:33:18;;;;;;;;;;;21.80;71.50;;;;;;5055697;28;859;-70
2023/08/15 10:35:51;;;;;;;;;;;21.80;71.50;;;;;;5058515;28;887;-70
2023/08/15 10:38:17;;;;;;;;;;;21.80;71.50;;;;;;5063041;28;1432;-69
2023/08/15 10:40:43;;;;;;;;;;;21.80;71.50;;;;;;5057580;28;1894;-69
2023/08/15 10:43:10;;;;;;;;;;;21.80;71.50;;;;;;5054287;28;854;-70
2023/08/15 10:45:36;;;;;;;;;;;21.80;71.50;;;;;;5062850;28;1251;-70
2023/08/15 10:48:02;;;;;;;;;;;21.80;71.50;;;;;;5060863;28;1304;-70
2023/08/15 10:50:27;;;;;;;;;;;21.80;71.50;;;;;;5059493;28;1243;-69
2023/08/15 10:53:02;;;;;;;;;;;21.80;71.50;;;;;;5062158;28;939;-70
2023/08/15 10:55:35;;;;;;;;;;;21.80;71.50;;;;;;5054236;28;1022;-67
2023/08/15 10:58:05;;;;;;;;;;;21.80;71.40;;;;;;5067701;28;1246;-67
2023/08/15 11:00:30;;;;;;;;;;;21.80;71.50;;;;;;5069214;28;830;-66
2023/08/15 11:02:56;;;;;;;;;;;21.80;71.50;;;;;;5056702;28;1902;-66
2023/08/15 11:05:21;;;;;;;;;;;21.80;71.50;;;;;;5057833;28;911;-68
2023/08/15 11:07:47;;;;;;;;;;;21.80;71.50;;;;;;5057483;28;1280;-67
2023/08/15 11:10:12;;;;;;;;;;;21.80;71.50;;;;;;5055855;28;847;-69
2023/08/15 11:12:38;;;;;;;;;;;21.80;71.40;;;;;;5060646;28;1304;-68
2023/08/15 11:15:06;;;;;;;;;;;21.80;71.40;;;;;;5059778;28;1454;-69
2023/08/15 11:17:31;;;;;;;;;;;21.80;71.40;;;;;;5060537;28;1503;-69
2023/08/15 11:19:57;;;;;;;;;;;21.80;71.40;;;;;;5060860;28;1330;-70
2023/08/15 11:22:22;;;;;;;;;;;21.80;71.50;;;;;;5060235;28;1963;-68
2023/08/15 11:24:51;;;;;;;;;;;21.80;71.50;;;;;;5062517;28;1268;-70
2023/08/15 11:27:16;;;;;;;;;;;21.80;71.40;;;;;;5062152;28;1329;-68
2023/08/15 11:29:42;;;;;;;;;;;21.80;71.40;;;;;;5060230;28;1516;-68
2023/08/15 11:32:08;;;;;;;;;;;21.80;71.50;;;;;;5059693;28;1319;-69
2023/08/15 11:34:36;;;;;;;;;;;21.80;71.40;;;;;;5059906;28;1418;-69
2023/08/15 11:37:01;;;;;;;;;;;21.80;71.40;;;;;;5061373;28;1292;-66
2023/08/15 11:39:28;;;;;;;;;;;21.80;71.40;;;;;;5063358;28;1530;-66
2023/08/15 11:41:53;;;;;;;;;;;21.80;71.40;;;;;;5061736;28;1938;-66
2023/08/15 11:44:19;;;;;;;;;;;21.80;71.50;;;;;;5059236;28;1371;-68
2023/08/15 11:46:45;;;;;;;;;;;21.80;71.40;;;;;;5059009;28;1373;-68
2023/08/15 11:49:17;;;;;;;;;;;21.80;71.40;;;;;;5059776;28;811;-66
2023/08/15 11:51:42;;;;;;;;;;;21.80;71.50;;;;;;5057951;28;831;-66
2023/08/15 11:54:08;;;;;;;;;;;21.80;71.40;;;;;;5058486;28;1002;-66
2023/08/15 11:56:49;;;;;;;;;;;21.80;71.40;;;;;;5059341;28;1367;-66
2023/08/15 11:59:22;;;;;;;;;;;21.80;71.40;;;;;;5059221;28;824;-67
2023/08/15 12:01:47;;;;;;;;;;;21.80;71.40;;;;;;5056562;28;1967;-68
2023/08/15 12:04:13;;;;;;;;;;;21.80;71.40;;;;;;5060362;28;1644;-68
2023/08/15 12:06:39;;;;;;;;;;;21.80;71.50;;;;;;5056701;28;1274;-67
2023/08/15 12:09:07;;;;;;;;;;;21.80;71.50;;;;;;5055869;28;844;-68
2023/08/15 12:11:34;;;;;;;;;;;21.80;71.40;;;;;;5033821;28;5483;-69
2023/08/15 12:13:59;;;;;;;;;;;21.80;71.50;;;;;;5037627;28;4270;-68
2023/08/15 12:16:25;;;;;;;;;;;21.80;71.40;;;;;;5039980;28;4584;-67
2023/08/15 12:18:50;;;;;;;;;;;21.80;71.40;;;;;;5037733;28;4390;-67
2023/08/15 12:21:16;;;;;;;;;;;21.80;71.50;;;;;;5034605;28;4478;-67
2023/08/15 12:23:41;;;;;;;;;;;21.80;71.40;;;;;;5038822;28;4272;-65
2023/08/15 12:26:06;;;;;;;;;;;21.80;71.40;;;;;;5038131;28;4720;-68
2023/08/15 12:28:32;;;;;;;;;;;21.80;71.40;;;;;;5040063;28;3983;-69
2023/08/15 12:30:57;;;;;;;;;;;21.80;71.40;;;;;;5044555;28;4086;-69
2023/08/15 12:33:23;;;;;;;;;;;21.80;71.40;;;;;;5042574;28;4439;-67
2023/08/15 12:35:48;;;;;;;;;;;21.80;71.40;;;;;;5035104;28;4150;-67
2023/08/15 12:38:14;;;;;;;;;;;21.80;71.40;;;;;;5034939;28;5468;-67
2023/08/15 12:40:42;;;;;;;;;;;21.80;71.40;;;;;;5037550;28;4299;-66
2023/08/15 12:43:08;;;;;;;;;;;21.80;71.40;;;;;;5049423;28;1902;-67
2023/08/15 12:45:33;;;;;;;;;;;21.80;71.40;;;;;;5049195;28;855;-67
2023/08/15 12:47:59;;;;;;;;;;;21.80;71.40;;;;;;5049031;28;1339;-68
2023/08/15 12:50:24;;;;;;;;;;;21.80;71.40;;;;;;5049206;28;1022;-67
2023/08/15 12:52:50;;;;;;;;;;;21.80;71.40;;;;;;5050521;28;830;-68
2023/08/15 12:55:15;;;;;;;;;;;21.80;71.40;;;;;;5034446;28;4070;-68
2023/08/15 12:57:41;;;;;;;;;;;21.80;71.40;;;;;;5051106;28;3884;-68
2023/08/15 13:00:08;;;;;;;;;;;21.80;71.40;;;;;;5044565;28;2376;-68
2023/08/15 13:02:34;;;;;;;;;;;21.80;71.40;;;;;;5053062;28;1954;-68
2023/08/15 13:05:00;;;;;;;;;;;21.80;71.40;;;;;;5053456;28;1529;-67
2023/08/15 13:07:25;;;;;;;;;;;21.80;71.40;;;;;;5057560;28;1517;-67
2023/08/15 13:09:51;;;;;;;;;;;21.80;71.40;;;;;;5052740;28;934;-67
2023/08/15 13:12:16;;;;;;;;;;;21.80;71.40;;;;;;5053361;28;951;-68
2023/08/15 13:14:44;;;;;;;;;;;21.80;71.40;;;;;;5053178;28;866;-68
2023/08/15 13:17:10;;;;;;;;;;;21.80;71.50;;;;;;5053069;28;1259;-67
2023/08/15 13:19:35;;;;;;;;;;;21.80;71.40;;;;;;5033367;28;4082;-68
2023/08/15 13:22:01;;;;;;;;;;;21.80;71.40;;;;;;5036853;28;4105;-67
2023/08/15 13:24:27;;;;;;;;;;;21.80;71.50;;;;;;5052628;28;895;-68
2023/08/15 13:26:53;;;;;;;;;;;21.80;71.40;;;;;;5052601;28;1366;-70
2023/08/15 13:29:18;;;;;;;;;;;21.80;71.40;;;;;;5051620;28;1273;-68
2023/08/15 13:31:44;;;;;;;;;;;21.80;71.40;;;;;;5052671;28;887;-68
2023/08/15 13:34:09;;;;;;;;;;;21.80;71.40;;;;;;5052395;28;1360;-68
2023/08/15 13:36:35;;;;;;;;;;;21.80;71.40;;;;;;5052491;28;1237;-68
2023/08/15 13:39:00;;;;;;;;;;;21.80;71.40;;;;;;5052077;28;915;-68
2023/08/15 13:41:26;;;;;;;;;;;21.80;71.40;;;;;;5041431;28;4584;-68
2023/08/15 13:43:51;;;;;;;;;;;21.80;71.40;;;;;;5040813;28;4243;-68
2023/08/15 13:46:19;;;;;;;;;;;21.80;71.40;;;;;;5042830;28;4285;-69
2023/08/15 13:48:44;;;;;;;;;;;21.80;71.50;;;;;;5039971;28;4166;-68
2023/08/15 13:51:19;;;;;;;;;;;21.80;71.60;;;;;;5044928;28;3973;-68
2023/08/15 13:53:45;;;;;;;;;;;21.80;71.60;;;;;;5037248;28;4152;-69
2023/08/15 13:56:11;;;;;;;;;;;21.80;71.60;;;;;;5039135;28;4270;-68
2023/08/15 13:58:37;;;;;;;;;;;21.80;71.60;;;;;;5046124;28;1484;-68
2023/08/15 14:01:02;;;;;;;;;;;21.80;71.50;;;;;;5051360;28;1973;-68
2023/08/15 14:03:31;;;;;;;;;;;21.80;71.50;;;;;;5043679;28;1709;-69
2023/08/15 14:05:56;;;;;;;;;;;21.80;71.50;;;;;;5047619;28;930;-69
2023/08/15 14:08:22;;;;;;;;;;;21.80;71.50;;;;;;5044941;28;1325;-69
2023/08/15 14:10:47;;;;;;;;;;;21.80;71.50;;;;;;5044237;28;824;-68
2023/08/15 14:13:13;;;;;;;;;;;21.80;71.50;;;;;;5046993;28;883;-69
2023/08/15 14:15:38;;;;;;;;;;;21.80;71.50;;;;;;5052296;28;913;-69
2023/08/15 14:18:04;;;;;;;;;;;21.80;71.50;;;;;;5051497;28;1373;-68
2023/08/15 14:20:30;;;;;;;;;;;21.80;71.50;;;;;;5045873;28;1395;-68
2023/08/15 14:22:57;;;;;;;;;;;21.80;71.50;;;;;;5043369;28;1906;-68
2023/08/15 14:25:22;;;;;;;;;;;21.80;71.50;;;;;;5052028;28;926;-68